sensor_id;sensor_type;location;lat;lon;timestamp;P1;durP1;ratioP1;P2;durP2;ratioP2
11797;SDS011;5956;51.428;6.682;2023-04-29T00:01:45;31.10;;;27.73;;
11797;SDS011;5956;51.428;6.682;2023-04-29T00:04:12;33.50;;;27.73;;
11797;SDS011;5956;51.428;6.682;2023-04-29T00:06:39;34.80;;;28.17;;
11797;SDS011;5956;51.428;6.682;2023-04-29T00:09:06;34.27;;;29.40;;
11797;SDS011;5956;51.428;6.682;2023-04-29T00:11:32;34.73;;;29.83;;
11797;SDS011;5956;51.428;6.682;2023-04-29T00:14:00;35.23;;;28.33;;
11797;SDS011;5956;51.428;6.682;2023-04-29T00:16:27;32.63;;;28.67;;
11797;SDS011;5956;51.428;6.682;2023-04-29T00:18:53;35.60;;;30.57;;
11797;SDS011;5956;51.428;6.682;2023-04-29T00:21:20;36.33;;;30.77;;
11797;SDS011;5956;51.428;6.682;2023-04-29T00:23:46;36.40;;;30.47;;
11797;SDS011;5956;51.428;6.682;2023-04-29T00:26:12;38.90;;;33.27;;
11797;SDS011;5956;51.428;6.682;2023-04-29T00:28:39;40.00;;;33.20;;
11797;SDS011;5956;51.428;6.682;2023-04-29T00:31:07;39.20;;;32.10;;
11797;SDS011;5956;51.428;6.682;2023-04-29T00:33:33;44.23;;;34.47;;
11797;SDS011;5956;51.428;6.682;2023-04-29T00:36:00;46.30;;;35.13;;
11797;SDS011;5956;51.428;6.682;2023-04-29T00:38:27;50.87;;;40.03;;
11797;SDS011;5956;51.428;6.682;2023-04-29T00:40:53;52.23;;;38.73;;
11797;SDS011;5956;51.428;6.682;2023-04-29T00:43:20;50.43;;;37.73;;
11797;SDS011;5956;51.428;6.682;2023-04-29T00:45:47;55.47;;;41.87;;
11797;SDS011;5956;51.428;6.682;2023-04-29T00:48:16;56.67;;;41.23;;
11797;SDS011;5956;51.428;6.682;2023-04-29T00:50:42;57.90;;;43.20;;
11797;SDS011;5956;51.428;6.682;2023-04-29T00:53:09;56.23;;;42.03;;
11797;SDS011;5956;51.428;6.682;2023-04-29T00:55:37;57.47;;;42.57;;
11797;SDS011;5956;51.428;6.682;2023-04-29T00:58:04;56.47;;;42.97;;
11797;SDS011;5956;51.428;6.682;2023-04-29T01:00:30;63.57;;;45.77;;
11797;SDS011;5956;51.428;6.682;2023-04-29T01:02:57;72.47;;;47.23;;
11797;SDS011;5956;51.428;6.682;2023-04-29T01:05:25;72.57;;;47.97;;
11797;SDS011;5956;51.428;6.682;2023-04-29T01:07:55;69.87;;;48.00;;
11797;SDS011;5956;51.428;6.682;2023-04-29T01:10:26;69.77;;;47.97;;
11797;SDS011;5956;51.428;6.682;2023-04-29T01:12:55;72.83;;;47.17;;
11797;SDS011;5956;51.428;6.682;2023-04-29T01:15:27;62.97;;;44.93;;
11797;SDS011;5956;51.428;6.682;2023-04-29T01:17:55;68.43;;;45.03;;
11797;SDS011;5956;51.428;6.682;2023-04-29T01:20:26;59.87;;;41.50;;
11797;SDS011;5956;51.428;6.682;2023-04-29T01:22:53;60.00;;;40.90;;
11797;SDS011;5956;51.428;6.682;2023-04-29T01:25:21;57.23;;;40.73;;
11797;SDS011;5956;51.428;6.682;2023-04-29T01:27:49;57.07;;;40.97;;
11797;SDS011;5956;51.428;6.682;2023-04-29T01:30:20;58.67;;;39.70;;
11797;SDS011;5956;51.428;6.682;2023-04-29T01:32:51;57.87;;;39.10;;
11797;SDS011;5956;51.428;6.682;2023-04-29T01:35:21;53.90;;;39.63;;
11797;SDS011;5956;51.428;6.682;2023-04-29T01:37:53;61.37;;;40.43;;
11797;SDS011;5956;51.428;6.682;2023-04-29T01:40:24;57.97;;;39.90;;
11797;SDS011;5956;51.428;6.682;2023-04-29T01:42:53;62.90;;;42.40;;
11797;SDS011;5956;51.428;6.682;2023-04-29T01:45:21;60.27;;;39.63;;
11797;SDS011;5956;51.428;6.682;2023-04-29T01:47:47;61.87;;;39.70;;
11797;SDS011;5956;51.428;6.682;2023-04-29T01:50:16;63.00;;;39.73;;
11797;SDS011;5956;51.428;6.682;2023-04-29T01:52:42;57.93;;;37.87;;
11797;SDS011;5956;51.428;6.682;2023-04-29T01:55:09;67.03;;;41.60;;
11797;SDS011;5956;51.428;6.682;2023-04-29T01:57:37;68.70;;;42.00;;
11797;SDS011;5956;51.428;6.682;2023-04-29T02:00:04;69.13;;;42.43;;
11797;SDS011;5956;51.428;6.682;2023-04-29T02:02:30;62.67;;;39.60;;
11797;SDS011;5956;51.428;6.682;2023-04-29T02:04:57;63.00;;;40.77;;
11797;SDS011;5956;51.428;6.682;2023-04-29T02:07:23;63.20;;;39.40;;
11797;SDS011;5956;51.428;6.682;2023-04-29T02:09:50;66.93;;;42.17;;
11797;SDS011;5956;51.428;6.682;2023-04-29T02:12:16;61.53;;;42.57;;
11797;SDS011;5956;51.428;6.682;2023-04-29T02:14:44;62.17;;;40.27;;
11797;SDS011;5956;51.428;6.682;2023-04-29T02:17:12;57.87;;;38.50;;
11797;SDS011;5956;51.428;6.682;2023-04-29T02:19:38;60.07;;;38.17;;
11797;SDS011;5956;51.428;6.682;2023-04-29T02:22:05;61.40;;;38.37;;
11797;SDS011;5956;51.428;6.682;2023-04-29T02:24:31;56.13;;;37.13;;
11797;SDS011;5956;51.428;6.682;2023-04-29T02:26:58;58.70;;;39.53;;
11797;SDS011;5956;51.428;6.682;2023-04-29T02:29:24;56.57;;;36.57;;
11797;SDS011;5956;51.428;6.682;2023-04-29T02:31:55;48.67;;;34.93;;
11797;SDS011;5956;51.428;6.682;2023-04-29T02:34:21;54.33;;;36.23;;
11797;SDS011;5956;51.428;6.682;2023-04-29T02:36:48;51.20;;;35.43;;
11797;SDS011;5956;51.428;6.682;2023-04-29T02:39:14;48.17;;;34.77;;
11797;SDS011;5956;51.428;6.682;2023-04-29T02:41:41;47.90;;;35.67;;
11797;SDS011;5956;51.428;6.682;2023-04-29T02:44:07;46.97;;;35.00;;
11797;SDS011;5956;51.428;6.682;2023-04-29T02:46:34;46.57;;;33.80;;
11797;SDS011;5956;51.428;6.682;2023-04-29T02:49:02;45.07;;;34.00;;
11797;SDS011;5956;51.428;6.682;2023-04-29T02:51:29;58.60;;;33.87;;
11797;SDS011;5956;51.428;6.682;2023-04-29T02:53:55;48.60;;;33.77;;
11797;SDS011;5956;51.428;6.682;2023-04-29T02:56:22;39.90;;;30.23;;
11797;SDS011;5956;51.428;6.682;2023-04-29T02:58:49;39.37;;;29.90;;
11797;SDS011;5956;51.428;6.682;2023-04-29T03:01:15;38.70;;;28.93;;
11797;SDS011;5956;51.428;6.682;2023-04-29T03:03:42;39.00;;;30.07;;
11797;SDS011;5956;51.428;6.682;2023-04-29T03:06:09;42.03;;;30.83;;
11797;SDS011;5956;51.428;6.682;2023-04-29T03:08:36;39.80;;;30.57;;
11797;SDS011;5956;51.428;6.682;2023-04-29T03:11:02;41.27;;;31.10;;
11797;SDS011;5956;51.428;6.682;2023-04-29T03:13:29;38.23;;;29.07;;
11797;SDS011;5956;51.428;6.682;2023-04-29T03:15:55;37.37;;;29.57;;
11797;SDS011;5956;51.428;6.682;2023-04-29T03:18:22;34.63;;;26.93;;
11797;SDS011;5956;51.428;6.682;2023-04-29T03:20:49;37.73;;;28.13;;
11797;SDS011;5956;51.428;6.682;2023-04-29T03:23:17;31.97;;;25.50;;
11797;SDS011;5956;51.428;6.682;2023-04-29T03:25:43;33.43;;;26.77;;
11797;SDS011;5956;51.428;6.682;2023-04-29T03:28:10;31.47;;;25.73;;
11797;SDS011;5956;51.428;6.682;2023-04-29T03:30:36;32.30;;;25.83;;
11797;SDS011;5956;51.428;6.682;2023-04-29T03:33:03;30.87;;;25.07;;
11797;SDS011;5956;51.428;6.682;2023-04-29T03:35:29;30.13;;;24.80;;
11797;SDS011;5956;51.428;6.682;2023-04-29T03:37:56;31.53;;;25.43;;
11797;SDS011;5956;51.428;6.682;2023-04-29T03:40:23;29.20;;;23.00;;
11797;SDS011;5956;51.428;6.682;2023-04-29T03:42:50;31.17;;;23.60;;
11797;SDS011;5956;51.428;6.682;2023-04-29T03:45:16;29.83;;;23.77;;
11797;SDS011;5956;51.428;6.682;2023-04-29T03:47:43;32.23;;;25.30;;
11797;SDS011;5956;51.428;6.682;2023-04-29T03:50:09;29.27;;;23.73;;
11797;SDS011;5956;51.428;6.682;2023-04-29T03:52:36;31.20;;;24.00;;
11797;SDS011;5956;51.428;6.682;2023-04-29T03:55:03;30.60;;;24.23;;
11797;SDS011;5956;51.428;6.682;2023-04-29T03:57:31;27.90;;;23.63;;
11797;SDS011;5956;51.428;6.682;2023-04-29T03:59:57;25.90;;;22.13;;
11797;SDS011;5956;51.428;6.682;2023-04-29T04:02:23;28.83;;;22.70;;
11797;SDS011;5956;51.428;6.682;2023-04-29T04:04:50;26.27;;;22.57;;
11797;SDS011;5956;51.428;6.682;2023-04-29T04:07:16;28.57;;;23.40;;
11797;SDS011;5956;51.428;6.682;2023-04-29T04:09:43;26.27;;;22.50;;
11797;SDS011;5956;51.428;6.682;2023-04-29T04:12:10;27.30;;;22.07;;
11797;SDS011;5956;51.428;6.682;2023-04-29T04:14:38;27.20;;;22.43;;
11797;SDS011;5956;51.428;6.682;2023-04-29T04:17:04;27.07;;;22.73;;
11797;SDS011;5956;51.428;6.682;2023-04-29T04:19:30;28.83;;;22.17;;
11797;SDS011;5956;51.428;6.682;2023-04-29T04:21:57;28.23;;;22.23;;
11797;SDS011;5956;51.428;6.682;2023-04-29T04:24:24;26.50;;;22.13;;
11797;SDS011;5956;51.428;6.682;2023-04-29T04:26:50;29.90;;;22.67;;
11797;SDS011;5956;51.428;6.682;2023-04-29T04:29:17;27.73;;;22.53;;
11797;SDS011;5956;51.428;6.682;2023-04-29T04:31:44;25.27;;;21.70;;
11797;SDS011;5956;51.428;6.682;2023-04-29T04:34:11;25.03;;;20.87;;
11797;SDS011;5956;51.428;6.682;2023-04-29T04:36:37;27.87;;;20.83;;
11797;SDS011;5956;51.428;6.682;2023-04-29T04:39:04;27.63;;;23.00;;
11797;SDS011;5956;51.428;6.682;2023-04-29T04:41:30;24.57;;;21.67;;
11797;SDS011;5956;51.428;6.682;2023-04-29T04:43:57;24.73;;;20.90;;
11797;SDS011;5956;51.428;6.682;2023-04-29T04:46:23;25.10;;;21.50;;
11797;SDS011;5956;51.428;6.682;2023-04-29T04:48:51;27.40;;;21.07;;
11797;SDS011;5956;51.428;6.682;2023-04-29T04:51:18;24.03;;;21.13;;
11797;SDS011;5956;51.428;6.682;2023-04-29T04:53:44;24.60;;;20.67;;
11797;SDS011;5956;51.428;6.682;2023-04-29T04:56:11;24.50;;;20.87;;
11797;SDS011;5956;51.428;6.682;2023-04-29T04:58:37;25.50;;;21.30;;
11797;SDS011;5956;51.428;6.682;2023-04-29T05:01:04;24.80;;;20.73;;
11797;SDS011;5956;51.428;6.682;2023-04-29T05:03:30;25.90;;;20.57;;
11797;SDS011;5956;51.428;6.682;2023-04-29T05:05:59;23.57;;;21.00;;
11797;SDS011;5956;51.428;6.682;2023-04-29T05:08:25;23.87;;;20.10;;
11797;SDS011;5956;51.428;6.682;2023-04-29T05:10:52;24.40;;;20.77;;
11797;SDS011;5956;51.428;6.682;2023-04-29T05:13:18;22.63;;;20.20;;
11797;SDS011;5956;51.428;6.682;2023-04-29T05:15:45;23.37;;;20.73;;
11797;SDS011;5956;51.428;6.682;2023-04-29T05:18:11;22.73;;;20.23;;
11797;SDS011;5956;51.428;6.682;2023-04-29T05:20:38;21.63;;;19.33;;
11797;SDS011;5956;51.428;6.682;2023-04-29T05:23:06;22.77;;;20.20;;
11797;SDS011;5956;51.428;6.682;2023-04-29T05:25:33;22.70;;;19.30;;
11797;SDS011;5956;51.428;6.682;2023-04-29T05:28:00;22.20;;;19.80;;
11797;SDS011;5956;51.428;6.682;2023-04-29T05:30:27;22.13;;;18.80;;
11797;SDS011;5956;51.428;6.682;2023-04-29T05:32:53;25.50;;;20.63;;
11797;SDS011;5956;51.428;6.682;2023-04-29T05:35:20;21.47;;;18.60;;
11797;SDS011;5956;51.428;6.682;2023-04-29T05:37:46;22.07;;;18.47;;
11797;SDS011;5956;51.428;6.682;2023-04-29T05:40:14;21.67;;;19.17;;
11797;SDS011;5956;51.428;6.682;2023-04-29T05:42:41;23.80;;;19.97;;
11797;SDS011;5956;51.428;6.682;2023-04-29T05:45:08;22.23;;;19.83;;
11797;SDS011;5956;51.428;6.682;2023-04-29T05:47:34;24.73;;;19.17;;
11797;SDS011;5956;51.428;6.682;2023-04-29T05:50:01;21.73;;;19.53;;
11797;SDS011;5956;51.428;6.682;2023-04-29T05:52:27;22.60;;;19.23;;
11797;SDS011;5956;51.428;6.682;2023-04-29T05:54:54;21.83;;;19.63;;
11797;SDS011;5956;51.428;6.682;2023-04-29T05:57:22;24.47;;;19.53;;
11797;SDS011;5956;51.428;6.682;2023-04-29T05:59:48;20.80;;;18.57;;
11797;SDS011;5956;51.428;6.682;2023-04-29T06:02:15;22.50;;;19.60;;
11797;SDS011;5956;51.428;6.682;2023-04-29T06:04:41;24.80;;;20.40;;
11797;SDS011;5956;51.428;6.682;2023-04-29T06:07:08;22.07;;;19.03;;
11797;SDS011;5956;51.428;6.682;2023-04-29T06:09:36;22.80;;;19.63;;
11797;SDS011;5956;51.428;6.682;2023-04-29T06:12:03;21.83;;;19.03;;
11797;SDS011;5956;51.428;6.682;2023-04-29T06:14:31;21.10;;;18.90;;
11797;SDS011;5956;51.428;6.682;2023-04-29T06:16:57;22.77;;;18.97;;
11797;SDS011;5956;51.428;6.682;2023-04-29T06:19:24;20.27;;;18.17;;
11797;SDS011;5956;51.428;6.682;2023-04-29T06:21:50;22.03;;;18.13;;
11797;SDS011;5956;51.428;6.682;2023-04-29T06:24:17;21.10;;;18.70;;
11797;SDS011;5956;51.428;6.682;2023-04-29T06:26:43;21.17;;;17.93;;
11797;SDS011;5956;51.428;6.682;2023-04-29T06:29:10;21.93;;;19.13;;
11797;SDS011;5956;51.428;6.682;2023-04-29T06:31:38;20.50;;;18.17;;
11797;SDS011;5956;51.428;6.682;2023-04-29T06:34:04;20.00;;;17.83;;
11797;SDS011;5956;51.428;6.682;2023-04-29T06:36:30;21.00;;;18.33;;
11797;SDS011;5956;51.428;6.682;2023-04-29T06:38:57;19.07;;;17.03;;
11797;SDS011;5956;51.428;6.682;2023-04-29T06:41:24;18.97;;;16.97;;
11797;SDS011;5956;51.428;6.682;2023-04-29T06:43:51;19.77;;;17.73;;
11797;SDS011;5956;51.428;6.682;2023-04-29T06:46:18;20.13;;;16.77;;
11797;SDS011;5956;51.428;6.682;2023-04-29T06:48:46;20.63;;;18.43;;
11797;SDS011;5956;51.428;6.682;2023-04-29T06:51:12;17.70;;;15.90;;
11797;SDS011;5956;51.428;6.682;2023-04-29T06:53:39;18.60;;;16.70;;
11797;SDS011;5956;51.428;6.682;2023-04-29T06:56:06;20.20;;;17.37;;
11797;SDS011;5956;51.428;6.682;2023-04-29T06:58:32;19.80;;;17.77;;
11797;SDS011;5956;51.428;6.682;2023-04-29T07:00:59;17.27;;;15.67;;
11797;SDS011;5956;51.428;6.682;2023-04-29T07:03:27;17.50;;;15.73;;
11797;SDS011;5956;51.428;6.682;2023-04-29T07:05:55;18.40;;;16.60;;
11797;SDS011;5956;51.428;6.682;2023-04-29T07:08:22;17.20;;;15.40;;
11797;SDS011;5956;51.428;6.682;2023-04-29T07:10:52;18.53;;;16.63;;
11797;SDS011;5956;51.428;6.682;2023-04-29T07:13:19;17.97;;;16.23;;
11797;SDS011;5956;51.428;6.682;2023-04-29T07:15:46;18.10;;;15.83;;
11797;SDS011;5956;51.428;6.682;2023-04-29T07:18:12;18.27;;;16.37;;
11797;SDS011;5956;51.428;6.682;2023-04-29T07:20:39;17.87;;;16.00;;
11797;SDS011;5956;51.428;6.682;2023-04-29T07:23:07;17.60;;;15.80;;
11797;SDS011;5956;51.428;6.682;2023-04-29T07:25:34;16.90;;;15.20;;
11797;SDS011;5956;51.428;6.682;2023-04-29T07:28:00;18.27;;;15.57;;
11797;SDS011;5956;51.428;6.682;2023-04-29T07:30:27;18.77;;;16.90;;
11797;SDS011;5956;51.428;6.682;2023-04-29T07:32:54;18.07;;;16.27;;
11797;SDS011;5956;51.428;6.682;2023-04-29T07:35:20;17.30;;;15.40;;
11797;SDS011;5956;51.428;6.682;2023-04-29T07:37:47;19.33;;;17.33;;
11797;SDS011;5956;51.428;6.682;2023-04-29T07:40:15;17.33;;;15.53;;
11797;SDS011;5956;51.428;6.682;2023-04-29T07:42:41;19.23;;;17.27;;
11797;SDS011;5956;51.428;6.682;2023-04-29T07:45:08;18.23;;;16.30;;
11797;SDS011;5956;51.428;6.682;2023-04-29T07:47:35;17.90;;;16.07;;
11797;SDS011;5956;51.428;6.682;2023-04-29T07:50:02;18.70;;;16.70;;
11797;SDS011;5956;51.428;6.682;2023-04-29T07:52:29;21.30;;;18.27;;
11797;SDS011;5956;51.428;6.682;2023-04-29T07:54:56;20.23;;;17.87;;
11797;SDS011;5956;51.428;6.682;2023-04-29T07:57:23;20.23;;;17.90;;
11797;SDS011;5956;51.428;6.682;2023-04-29T07:59:50;18.93;;;16.67;;
11797;SDS011;5956;51.428;6.682;2023-04-29T08:02:17;20.53;;;18.33;;
11797;SDS011;5956;51.428;6.682;2023-04-29T08:04:44;23.53;;;19.47;;
11797;SDS011;5956;51.428;6.682;2023-04-29T08:07:11;22.30;;;19.40;;
11797;SDS011;5956;51.428;6.682;2023-04-29T08:09:37;20.60;;;18.37;;
11797;SDS011;5956;51.428;6.682;2023-04-29T08:12:04;24.70;;;19.70;;
11797;SDS011;5956;51.428;6.682;2023-04-29T08:14:32;22.87;;;20.37;;
11797;SDS011;5956;51.428;6.682;2023-04-29T08:16:58;25.97;;;22.60;;
11797;SDS011;5956;51.428;6.682;2023-04-29T08:19:25;22.60;;;19.53;;
11797;SDS011;5956;51.428;6.682;2023-04-29T08:21:52;22.27;;;19.93;;
11797;SDS011;5956;51.428;6.682;2023-04-29T08:24:18;21.73;;;19.53;;
11797;SDS011;5956;51.428;6.682;2023-04-29T08:26:46;24.53;;;19.37;;
11797;SDS011;5956;51.428;6.682;2023-04-29T08:29:12;21.77;;;19.67;;
11797;SDS011;5956;51.428;6.682;2023-04-29T08:31:41;26.93;;;20.40;;
11797;SDS011;5956;51.428;6.682;2023-04-29T08:34:08;24.80;;;21.43;;
11797;SDS011;5956;51.428;6.682;2023-04-29T08:36:34;26.60;;;22.60;;
11797;SDS011;5956;51.428;6.682;2023-04-29T08:39:02;24.77;;;21.60;;
11797;SDS011;5956;51.428;6.682;2023-04-29T08:41:30;26.50;;;22.40;;
11797;SDS011;5956;51.428;6.682;2023-04-29T08:43:58;29.20;;;24.83;;
11797;SDS011;5956;51.428;6.682;2023-04-29T08:46:24;26.97;;;22.10;;
11797;SDS011;5956;51.428;6.682;2023-04-29T08:48:52;29.60;;;24.13;;
11797;SDS011;5956;51.428;6.682;2023-04-29T08:51:20;28.37;;;22.17;;
11797;SDS011;5956;51.428;6.682;2023-04-29T08:53:47;25.67;;;22.00;;
11797;SDS011;5956;51.428;6.682;2023-04-29T08:56:14;27.30;;;23.10;;
11797;SDS011;5956;51.428;6.682;2023-04-29T08:58:44;26.33;;;22.13;;
11797;SDS011;5956;51.428;6.682;2023-04-29T09:01:11;26.07;;;22.07;;
11797;SDS011;5956;51.428;6.682;2023-04-29T09:03:39;26.30;;;23.07;;
11797;SDS011;5956;51.428;6.682;2023-04-29T09:06:09;26.40;;;22.57;;
11797;SDS011;5956;51.428;6.682;2023-04-29T09:08:36;28.10;;;22.60;;
11797;SDS011;5956;51.428;6.682;2023-04-29T09:11:03;30.67;;;24.67;;
11797;SDS011;5956;51.428;6.682;2023-04-29T09:13:30;27.70;;;24.70;;
11797;SDS011;5956;51.428;6.682;2023-04-29T09:15:57;27.90;;;24.87;;
11797;SDS011;5956;51.428;6.682;2023-04-29T09:18:43;27.00;;;23.13;;
11797;SDS011;5956;51.428;6.682;2023-04-29T09:21:14;31.13;;;23.50;;
11797;SDS011;5956;51.428;6.682;2023-04-29T09:23:41;28.80;;;23.37;;
11797;SDS011;5956;51.428;6.682;2023-04-29T09:26:08;32.33;;;24.40;;
11797;SDS011;5956;51.428;6.682;2023-04-29T09:28:34;28.60;;;24.13;;
11797;SDS011;5956;51.428;6.682;2023-04-29T09:31:01;26.50;;;23.17;;
11797;SDS011;5956;51.428;6.682;2023-04-29T09:33:30;29.40;;;24.17;;
11797;SDS011;5956;51.428;6.682;2023-04-29T09:35:56;26.50;;;22.63;;
11797;SDS011;5956;51.428;6.682;2023-04-29T09:38:24;25.93;;;22.97;;
11797;SDS011;5956;51.428;6.682;2023-04-29T09:40:51;25.10;;;21.30;;
11797;SDS011;5956;51.428;6.682;2023-04-29T09:43:20;24.27;;;21.63;;
11797;SDS011;5956;51.428;6.682;2023-04-29T09:45:48;24.67;;;22.00;;
11797;SDS011;5956;51.428;6.682;2023-04-29T09:48:14;23.50;;;21.07;;
11797;SDS011;5956;51.428;6.682;2023-04-29T09:50:42;23.63;;;21.20;;
11797;SDS011;5956;51.428;6.682;2023-04-29T09:53:09;27.40;;;21.07;;
11797;SDS011;5956;51.428;6.682;2023-04-29T09:55:41;26.37;;;22.50;;
11797;SDS011;5956;51.428;6.682;2023-04-29T09:58:26;23.30;;;20.83;;
11797;SDS011;5956;51.428;6.682;2023-04-29T10:00:52;25.37;;;22.37;;
11797;SDS011;5956;51.428;6.682;2023-04-29T10:03:19;26.27;;;21.50;;
11797;SDS011;5956;51.428;6.682;2023-04-29T10:05:46;27.27;;;22.00;;
11797;SDS011;5956;51.428;6.682;2023-04-29T10:08:14;22.87;;;20.23;;
11797;SDS011;5956;51.428;6.682;2023-04-29T10:10:42;24.13;;;20.13;;
11797;SDS011;5956;51.428;6.682;2023-04-29T10:13:10;24.97;;;21.67;;
11797;SDS011;5956;51.428;6.682;2023-04-29T10:15:38;21.63;;;19.40;;
11797;SDS011;5956;51.428;6.682;2023-04-29T10:18:08;22.97;;;20.53;;
11797;SDS011;5956;51.428;6.682;2023-04-29T10:20:39;24.07;;;21.00;;
11797;SDS011;5956;51.428;6.682;2023-04-29T10:23:07;23.37;;;20.90;;
11797;SDS011;5956;51.428;6.682;2023-04-29T10:25:36;23.40;;;20.90;;
11797;SDS011;5956;51.428;6.682;2023-04-29T10:28:04;23.10;;;20.67;;
11797;SDS011;5956;51.428;6.682;2023-04-29T10:30:32;24.73;;;19.87;;
11797;SDS011;5956;51.428;6.682;2023-04-29T10:32:59;22.77;;;20.10;;
11797;SDS011;5956;51.428;6.682;2023-04-29T10:35:27;22.70;;;20.33;;
11797;SDS011;5956;51.428;6.682;2023-04-29T10:37:53;20.90;;;18.80;;
11797;SDS011;5956;51.428;6.682;2023-04-29T10:40:21;22.10;;;19.87;;
11797;SDS011;5956;51.428;6.682;2023-04-29T10:42:50;22.93;;;18.97;;
11797;SDS011;5956;51.428;6.682;2023-04-29T10:45:27;22.97;;;20.17;;
11797;SDS011;5956;51.428;6.682;2023-04-29T10:48:12;22.87;;;20.63;;
11797;SDS011;5956;51.428;6.682;2023-04-29T10:50:39;21.67;;;19.63;;
11797;SDS011;5956;51.428;6.682;2023-04-29T10:53:07;21.67;;;19.47;;
11797;SDS011;5956;51.428;6.682;2023-04-29T10:55:35;21.87;;;18.27;;
11797;SDS011;5956;51.428;6.682;2023-04-29T10:58:02;19.57;;;17.67;;
11797;SDS011;5956;51.428;6.682;2023-04-29T11:00:30;21.80;;;18.87;;
11797;SDS011;5956;51.428;6.682;2023-04-29T11:02:58;20.53;;;18.53;;
11797;SDS011;5956;51.428;6.682;2023-04-29T11:05:28;21.17;;;18.87;;
11797;SDS011;5956;51.428;6.682;2023-04-29T11:08:07;20.17;;;18.07;;
11797;SDS011;5956;51.428;6.682;2023-04-29T11:10:35;18.57;;;16.57;;
11797;SDS011;5956;51.428;6.682;2023-04-29T11:13:23;19.67;;;17.70;;
11797;SDS011;5956;51.428;6.682;2023-04-29T11:15:59;21.67;;;17.87;;
11797;SDS011;5956;51.428;6.682;2023-04-29T11:18:28;21.10;;;18.90;;
11797;SDS011;5956;51.428;6.682;2023-04-29T11:21:10;19.37;;;17.50;;
11797;SDS011;5956;51.428;6.682;2023-04-29T11:23:38;20.87;;;18.73;;
11797;SDS011;5956;51.428;6.682;2023-04-29T11:26:06;19.83;;;17.97;;
11797;SDS011;5956;51.428;6.682;2023-04-29T11:28:33;17.53;;;15.93;;
11797;SDS011;5956;51.428;6.682;2023-04-29T11:31:01;8.60;;;7.80;;
11797;SDS011;5956;51.428;6.682;2023-04-29T11:33:30;11.00;;;9.87;;
11797;SDS011;5956;51.428;6.682;2023-04-29T11:35:56;18.77;;;16.90;;
11797;SDS011;5956;51.428;6.682;2023-04-29T11:38:23;15.85;;;14.35;;
11797;SDS011;5956;51.428;6.682;2023-04-29T11:40:50;16.45;;;13.77;;
11797;SDS011;5956;51.428;6.682;2023-04-29T11:43:17;16.63;;;15.20;;
11797;SDS011;5956;51.428;6.682;2023-04-29T11:45:43;19.15;;;16.10;;
11797;SDS011;5956;51.428;6.682;2023-04-29T11:48:17;16.30;;;14.70;;
11797;SDS011;5956;51.428;6.682;2023-04-29T11:50:44;16.38;;;14.98;;
11797;SDS011;5956;51.428;6.682;2023-04-29T11:53:11;18.38;;;16.63;;
11797;SDS011;5956;51.428;6.682;2023-04-29T11:55:37;18.73;;;17.08;;
11797;SDS011;5956;51.428;6.682;2023-04-29T11:58:04;13.40;;;11.68;;
11797;SDS011;5956;51.428;6.682;2023-04-29T12:00:31;14.60;;;13.30;;
11797;SDS011;5956;51.428;6.682;2023-04-29T12:02:58;8.52;;;7.68;;
11797;SDS011;5956;51.428;6.682;2023-04-29T12:05:26;18.35;;;15.63;;
11797;SDS011;5956;51.428;6.682;2023-04-29T12:07:53;15.15;;;13.80;;
11797;SDS011;5956;51.428;6.682;2023-04-29T12:10:20;16.30;;;14.88;;
11797;SDS011;5956;51.428;6.682;2023-04-29T12:12:46;14.73;;;13.35;;
11797;SDS011;5956;51.428;6.682;2023-04-29T12:15:13;16.17;;;14.65;;
11797;SDS011;5956;51.428;6.682;2023-04-29T12:17:40;14.07;;;12.75;;
11797;SDS011;5956;51.428;6.682;2023-04-29T12:20:07;15.05;;;13.55;;
11797;SDS011;5956;51.428;6.682;2023-04-29T12:22:37;16.13;;;14.73;;
11797;SDS011;5956;51.428;6.682;2023-04-29T12:25:04;15.57;;;14.07;;
11797;SDS011;5956;51.428;6.682;2023-04-29T12:27:31;14.25;;;12.82;;
11797;SDS011;5956;51.428;6.682;2023-04-29T12:29:58;12.95;;;11.77;;
11797;SDS011;5956;51.428;6.682;2023-04-29T12:32:25;12.60;;;11.13;;
11797;SDS011;5956;51.428;6.682;2023-04-29T12:34:51;13.07;;;11.27;;
11797;SDS011;5956;51.428;6.682;2023-04-29T12:37:18;12.07;;;10.85;;
11797;SDS011;5956;51.428;6.682;2023-04-29T12:39:48;12.45;;;11.20;;
11797;SDS011;5956;51.428;6.682;2023-04-29T12:42:14;12.38;;;11.23;;
11797;SDS011;5956;51.428;6.682;2023-04-29T12:44:43;12.27;;;11.18;;
11797;SDS011;5956;51.428;6.682;2023-04-29T12:47:10;12.90;;;11.65;;
11797;SDS011;5956;51.428;6.682;2023-04-29T12:49:37;12.40;;;11.25;;
11797;SDS011;5956;51.428;6.682;2023-04-29T12:52:06;13.82;;;11.95;;
11797;SDS011;5956;51.428;6.682;2023-04-29T12:54:34;12.27;;;11.07;;
11797;SDS011;5956;51.428;6.682;2023-04-29T12:57:03;13.65;;;12.35;;
11797;SDS011;5956;51.428;6.682;2023-04-29T12:59:29;14.20;;;12.80;;
11797;SDS011;5956;51.428;6.682;2023-04-29T13:01:56;34.65;;;17.75;;
11797;SDS011;5956;51.428;6.682;2023-04-29T13:04:23;14.77;;;13.30;;
11797;SDS011;5956;51.428;6.682;2023-04-29T13:06:50;13.23;;;12.02;;
11797;SDS011;5956;51.428;6.682;2023-04-29T13:09:22;14.18;;;12.15;;
11797;SDS011;5956;51.428;6.682;2023-04-29T13:11:49;15.05;;;12.88;;
11797;SDS011;5956;51.428;6.682;2023-04-29T13:14:17;12.68;;;11.43;;
11797;SDS011;5956;51.428;6.682;2023-04-29T13:16:43;13.73;;;12.25;;
11797;SDS011;5956;51.428;6.682;2023-04-29T13:19:10;13.77;;;12.57;;
11797;SDS011;5956;51.428;6.682;2023-04-29T13:21:37;13.30;;;12.02;;
11797;SDS011;5956;51.428;6.682;2023-04-29T13:24:03;12.85;;;11.60;;
11797;SDS011;5956;51.428;6.682;2023-04-29T13:26:30;13.15;;;11.75;;
11797;SDS011;5956;51.428;6.682;2023-04-29T13:28:57;13.80;;;12.45;;
11797;SDS011;5956;51.428;6.682;2023-04-29T13:31:24;12.88;;;11.77;;
11797;SDS011;5956;51.428;6.682;2023-04-29T13:33:52;12.85;;;11.55;;
11797;SDS011;5956;51.428;6.682;2023-04-29T13:36:19;12.60;;;11.60;;
11797;SDS011;5956;51.428;6.682;2023-04-29T13:38:45;10.75;;;9.85;;
11797;SDS011;5956;51.428;6.682;2023-04-29T13:41:12;22.70;;;11.00;;
11797;SDS011;5956;51.428;6.682;2023-04-29T13:43:39;10.00;;;9.10;;
11797;SDS011;5956;51.428;6.682;2023-04-29T13:46:06;10.55;;;8.23;;
11797;SDS011;5956;51.428;6.682;2023-04-29T13:48:34;10.38;;;8.73;;
11797;SDS011;5956;51.428;6.682;2023-04-29T13:51:01;10.45;;;9.50;;
11797;SDS011;5956;51.428;6.682;2023-04-29T13:53:27;9.55;;;8.65;;
11797;SDS011;5956;51.428;6.682;2023-04-29T13:55:54;10.38;;;9.30;;
11797;SDS011;5956;51.428;6.682;2023-04-29T13:58:20;9.52;;;8.63;;
11797;SDS011;5956;51.428;6.682;2023-04-29T14:00:47;9.30;;;8.57;;
11797;SDS011;5956;51.428;6.682;2023-04-29T14:03:13;9.38;;;8.52;;
11797;SDS011;5956;51.428;6.682;2023-04-29T14:05:43;9.93;;;8.73;;
11797;SDS011;5956;51.428;6.682;2023-04-29T14:08:10;9.80;;;8.88;;
11797;SDS011;5956;51.428;6.682;2023-04-29T14:10:36;8.57;;;7.82;;
11797;SDS011;5956;51.428;6.682;2023-04-29T14:13:03;8.98;;;8.18;;
11797;SDS011;5956;51.428;6.682;2023-04-29T14:15:29;9.55;;;8.73;;
11797;SDS011;5956;51.428;6.682;2023-04-29T14:17:56;8.68;;;7.88;;
11797;SDS011;5956;51.428;6.682;2023-04-29T14:20:22;9.40;;;8.57;;
11797;SDS011;5956;51.428;6.682;2023-04-29T14:22:50;9.77;;;8.75;;
11797;SDS011;5956;51.428;6.682;2023-04-29T14:25:17;8.95;;;8.18;;
11797;SDS011;5956;51.428;6.682;2023-04-29T14:27:43;10.07;;;9.10;;
11797;SDS011;5956;51.428;6.682;2023-04-29T14:30:10;10.60;;;9.38;;
11797;SDS011;5956;51.428;6.682;2023-04-29T14:32:37;10.27;;;9.20;;
11797;SDS011;5956;51.428;6.682;2023-04-29T14:35:04;10.05;;;9.15;;
11797;SDS011;5956;51.428;6.682;2023-04-29T14:37:30;10.25;;;9.05;;